Time;durP1;ratioP1;P1;durP2;ratioP2;P2;SDS_P1;SDS_P2;PMS_P1;PMS_P2;Temp;Humidity;BMP_temperature;BMP_pressure;BME280_temperature;BME280_humidity;BME280_pressure;Samples;Min_cycle;Max_cycle;Signal;HPM_P1;HPM_P2
2021/07/06 00:00:35;;;;;;;1.00;0.90;;;19.80;99.90;;;;;;4944628;29;20194;-78
2021/07/06 00:03:00;;;;;;;0.70;0.60;;;19.80;99.90;;;;;;4937123;29;20225;-78
2021/07/06 00:05:26;;;;;;;0.70;0.50;;;19.80;99.90;;;;;;4942614;29;20430;-78
2021/07/06 00:07:52;;;;;;;1.33;0.97;;;19.70;99.90;;;;;;4939324;28;20199;-78
2021/07/06 00:13:28;;;;;;;0.70;0.60;;;19.70;99.90;;;;;;4949632;29;20414;-78
2021/07/06 00:15:54;;;;;;;0.70;0.50;;;19.60;99.90;;;;;;4955174;28;20983;-78
2021/07/06 00:18:19;;;;;;;0.80;0.60;;;19.60;99.90;;;;;;4944842;29;20163;-78
2021/07/06 00:20:45;;;;;;;0.70;0.60;;;19.60;99.90;;;;;;4937091;29;20274;-78
2021/07/06 00:23:11;;;;;;;1.20;0.93;;;19.50;99.90;;;;;;4953396;29;20265;-78
2021/07/06 00:25:36;;;;;;;0.90;0.77;;;19.50;99.90;;;;;;4946140;28;20629;-78
2021/07/06 00:28:02;;;;;;;0.70;0.50;;;19.50;99.90;;;;;;4956872;28;20206;-78
2021/07/06 00:30:28;;;;;;;0.70;0.60;;;19.50;99.90;;;;;;4955585;23;20226;-78
2021/07/06 00:33:14;;;;;;;0.90;0.70;;;19.50;99.90;;;;;;4950281;29;20205;-78
2021/07/06 00:35:40;;;;;;;0.73;0.53;;;19.50;99.90;;;;;;4939711;29;20696;-78
2021/07/06 00:38:05;;;;;;;0.80;0.67;;;19.50;99.90;;;;;;4941124;29;20422;-78
2021/07/06 00:40:31;;;;;;;0.93;0.87;;;19.40;99.90;;;;;;4944150;28;20902;-78
2021/07/06 00:42:59;;;;;;;0.70;0.50;;;19.40;99.90;;;;;;4939287;29;20274;-78
2021/07/06 00:45:27;;;;;;;0.70;0.60;;;19.40;99.90;;;;;;4948430;29;20171;-78
2021/07/06 00:47:53;;;;;;;0.80;0.70;;;19.40;99.90;;;;;;4944538;29;20795;-78
2021/07/06 00:50:23;;;;;;;0.70;0.60;;;19.30;99.90;;;;;;4952385;28;20434;-78
2021/07/06 00:52:50;;;;;;;0.73;0.57;;;19.30;99.90;;;;;;4951438;29;20454;-78
2021/07/06 00:55:16;;;;;;;0.70;0.50;;;19.30;99.90;;;;;;4963288;28;20418;-78
2021/07/06 00:57:42;;;;;;;0.70;0.50;;;19.30;99.90;;;;;;4959172;28;20422;-78
2021/07/06 01:00:20;;;;;;;0.80;0.70;;;19.30;99.90;;;;;;4955246;29;20435;-78
2021/07/06 01:02:46;;;;;;;0.70;0.60;;;19.20;99.90;;;;;;4929974;29;20987;-78
2021/07/06 01:05:16;;;;;;;0.70;0.50;;;19.20;99.90;;;;;;4947712;29;20956;-78
2021/07/06 01:07:41;;;;;;;1.10;0.60;;;19.10;99.90;;;;;;4946887;28;20426;-78
2021/07/06 01:10:08;;;;;;;0.70;0.50;;;19.10;99.90;;;;;;4946598;28;20476;-78
2021/07/06 01:12:34;;;;;;;0.70;0.50;;;19.10;99.90;;;;;;4953733;28;20227;-78
2021/07/06 01:15:02;;;;;;;0.70;0.50;;;19.00;99.90;;;;;;4944339;29;20948;-78
2021/07/06 01:17:29;;;;;;;1.53;0.83;;;19.00;99.90;;;;;;4961533;29;20457;-78
2021/07/06 01:19:57;;;;;;;0.90;0.80;;;18.90;99.90;;;;;;4947130;28;20533;-78
2021/07/06 01:22:28;;;;;;;1.07;0.97;;;18.90;99.90;;;;;;4951503;28;20449;-77
2021/07/06 01:24:55;;;;;;;0.77;0.57;;;19.00;99.90;;;;;;4957821;28;20422;-78
2021/07/06 01:27:21;;;;;;;0.70;0.60;;;19.00;99.90;;;;;;4942440;29;20792;-78
2021/07/06 01:29:46;;;;;;;1.17;0.80;;;19.00;99.90;;;;;;4952308;29;20596;-78
2021/07/06 01:32:12;;;;;;;0.70;0.50;;;18.90;99.90;;;;;;4955856;29;20438;-78
2021/07/06 01:34:38;;;;;;;0.80;0.70;;;18.90;99.90;;;;;;4950534;29;20531;-78
2021/07/06 01:37:04;;;;;;;0.70;0.50;;;18.90;99.90;;;;;;4957747;28;20243;-78
2021/07/06 01:39:30;;;;;;;0.80;0.70;;;18.90;99.90;;;;;;4943294;28;20199;-78
2021/07/06 01:41:56;;;;;;;0.80;0.70;;;18.90;99.90;;;;;;4958615;28;20524;-78
2021/07/06 01:44:26;;;;;;;0.80;0.60;;;18.90;99.90;;;;;;4953547;29;20999;-78
2021/07/06 01:46:52;;;;;;;0.77;0.60;;;18.90;99.90;;;;;;4946129;28;20426;-78
2021/07/06 01:49:18;;;;;;;0.70;0.50;;;19.00;99.90;;;;;;4950080;29;20441;-78
2021/07/06 01:51:45;;;;;;;0.80;0.70;;;18.90;99.90;;;;;;4949074;29;20457;-77
2021/07/06 01:54:11;;;;;;;0.80;0.63;;;18.90;99.90;;;;;;4941630;28;20589;-78
2021/07/06 01:56:43;;;;;;;0.93;0.70;;;18.90;99.90;;;;;;4954047;28;20452;-78
2021/07/06 02:01:43;;;;;;;1.13;0.60;;;18.80;99.90;;;;;;4951319;29;20477;-78
2021/07/06 02:04:09;;;;;;;0.70;0.50;;;18.80;99.90;;;;;;4952183;28;20932;-78
2021/07/06 02:06:34;;;;;;;2.10;1.80;;;18.80;99.90;;;;;;4955666;29;20423;-78
2021/07/06 02:09:00;;;;;;;1.30;0.73;;;18.90;99.90;;;;;;4955416;28;20552;-78
2021/07/06 02:12:29;;;;;;;0.70;0.50;;;18.90;99.90;;;;;;4976482;23;20285;-78
2021/07/06 02:15:40;;;;;;;0.70;0.60;;;18.90;99.90;;;;;;4901686;29;20432;-77
2021/07/06 02:18:31;;;;;;;0.70;0.50;;;18.90;99.90;;;;;;4906411;29;20439;-77
2021/07/06 02:21:15;;;;;;;0.80;0.60;;;18.90;99.90;;;;;;4898500;29;20447;-77
2021/07/06 02:23:41;;;;;;;0.80;0.70;;;18.80;99.90;;;;;;4934439;28;20494;-78
2021/07/06 02:26:08;;;;;;;0.70;0.50;;;18.80;99.90;;;;;;4939852;29;20486;-77
2021/07/06 02:28:35;;;;;;;0.70;0.50;;;18.80;99.90;;;;;;4921646;29;20180;-77
2021/07/06 02:31:03;;;;;;;0.70;0.50;;;18.70;99.90;;;;;;4947396;29;20445;-77
2021/07/06 02:33:33;;;;;;;0.90;0.60;;;18.70;99.90;;;;;;4943065;28;20918;-77
2021/07/06 02:36:06;;;;;;;0.70;0.50;;;18.80;99.90;;;;;;4946157;29;20414;-78
2021/07/06 02:38:32;;;;;;;0.70;0.50;;;18.80;99.90;;;;;;4939947;28;20435;-77
2021/07/06 02:40:58;;;;;;;0.70;0.60;;;18.80;99.90;;;;;;4947984;29;20473;-77
2021/07/06 02:43:23;;;;;;;0.70;0.60;;;18.80;99.90;;;;;;4948597;28;20674;-77
2021/07/06 02:45:49;;;;;;;0.70;0.50;;;18.80;99.90;;;;;;4948045;29;20218;-77
2021/07/06 02:48:15;;;;;;;0.90;0.80;;;18.80;99.90;;;;;;4948543;29;20174;-77
2021/07/06 02:50:42;;;;;;;0.70;0.60;;;18.70;99.90;;;;;;4954758;28;20820;-77
2021/07/06 02:53:08;;;;;;;1.10;0.90;;;18.80;99.90;;;;;;4954552;28;20182;-77
2021/07/06 02:55:34;;;;;;;0.70;0.50;;;18.80;99.90;;;;;;4953584;28;20449;-78
2021/07/06 02:58:00;;;;;;;0.80;0.73;;;18.80;99.90;;;;;;4938124;29;20422;-78
2021/07/06 03:00:27;;;;;;;0.80;0.80;;;18.90;99.90;;;;;;4946017;29;20202;-77
2021/07/06 03:02:55;;;;;;;1.47;0.90;;;18.90;99.90;;;;;;4944798;29;20209;-77
2021/07/06 03:05:23;;;;;;;0.80;0.70;;;18.90;99.90;;;;;;4940278;29;20951;-77
2021/07/06 03:07:49;;;;;;;1.10;0.70;;;18.90;99.90;;;;;;4935045;29;20502;-77
2021/07/06 03:10:20;;;;;;;0.70;0.70;;;18.80;99.90;;;;;;4951370;29;20522;-77
2021/07/06 03:12:46;;;;;;;1.33;1.03;;;18.80;99.90;;;;;;4938463;28;20482;-77
2021/07/06 03:15:14;;;;;;;0.70;0.50;;;18.80;99.90;;;;;;4947007;29;20409;-78
2021/07/06 03:17:43;;;;;;;0.80;0.60;;;18.80;99.90;;;;;;4944923;28;20182;-77
2021/07/06 03:20:10;;;;;;;0.90;0.60;;;18.80;99.90;;;;;;4939942;28;20487;-78
2021/07/06 03:22:36;;;;;;;1.00;1.00;;;18.80;99.90;;;;;;4937808;29;20462;-79
2021/07/06 03:25:07;;;;;;;1.03;0.93;;;18.70;99.90;;;;;;4953062;29;20413;-78
2021/07/06 03:27:33;;;;;;;0.70;0.50;;;18.70;99.90;;;;;;4943324;29;20418;-75
2021/07/06 03:29:58;;;;;;;1.50;0.93;;;18.70;99.90;;;;;;4944578;28;20450;-76
2021/07/06 03:32:24;;;;;;;0.70;0.60;;;18.70;99.90;;;;;;4938522;29;20422;-76
2021/07/06 03:34:49;;;;;;;0.70;0.50;;;18.70;99.90;;;;;;4934337;29;20214;-76
2021/07/06 03:37:15;;;;;;;0.70;0.50;;;18.70;99.90;;;;;;4925233;29;20176;-76
2021/07/06 03:39:41;;;;;;;0.80;0.60;;;18.70;99.90;;;;;;4938254;29;20195;-77
2021/07/06 03:42:08;;;;;;;0.97;0.60;;;18.70;99.90;;;;;;4942753;29;20296;-76
2021/07/06 03:44:35;;;;;;;0.80;0.57;;;18.60;99.90;;;;;;4953637;29;20784;-75
2021/07/06 03:47:01;;;;;;;1.23;1.13;;;18.70;99.90;;;;;;4943481;29;20417;-75
2021/07/06 03:49:27;;;;;;;0.80;0.60;;;18.70;99.90;;;;;;4955390;28;20438;-77
2021/07/06 03:51:52;;;;;;;1.10;0.80;;;18.70;99.90;;;;;;4950789;28;20857;-77
2021/07/06 03:54:18;;;;;;;1.87;0.80;;;18.70;99.90;;;;;;4945044;28;20183;-77
2021/07/06 03:56:43;;;;;;;1.23;1.13;;;18.70;99.90;;;;;;4934861;29;20187;-78
2021/07/06 03:59:09;;;;;;;0.90;0.70;;;18.70;99.90;;;;;;4935591;29;20171;-77
2021/07/06 04:01:34;;;;;;;0.70;0.60;;;18.70;99.90;;;;;;4939409;29;20175;-78
2021/07/06 04:04:01;;;;;;;0.87;0.83;;;18.70;99.90;;;;;;4935277;29;20756;-78
2021/07/06 04:06:27;;;;;;;0.70;0.50;;;18.70;99.90;;;;;;4936700;29;20518;-76
2021/07/06 04:08:53;;;;;;;0.80;0.70;;;18.70;99.90;;;;;;4954264;29;20414;-76
2021/07/06 04:11:18;;;;;;;0.70;0.50;;;18.70;99.90;;;;;;4949718;28;20198;-77
2021/07/06 04:13:44;;;;;;;0.70;0.50;;;18.70;99.90;;;;;;4946619;29;20421;-77
2021/07/06 04:16:09;;;;;;;0.70;0.50;;;18.70;99.90;;;;;;4941216;28;20229;-76
2021/07/06 04:18:35;;;;;;;0.70;0.50;;;18.60;99.90;;;;;;4948429;29;20186;-77
2021/07/06 04:21:00;;;;;;;0.70;0.50;;;18.60;99.90;;;;;;4954793;28;20194;-76
2021/07/06 04:23:26;;;;;;;0.90;0.60;;;18.60;99.90;;;;;;4937243;28;20257;-76
2021/07/06 04:25:52;;;;;;;0.70;0.50;;;18.50;99.90;;;;;;4955752;28;20197;-76
2021/07/06 04:28:17;;;;;;;0.70;0.50;;;18.50;99.90;;;;;;4953205;28;20260;-76
2021/07/06 04:30:43;;;;;;;0.70;0.60;;;18.50;99.90;;;;;;4949344;29;20194;-77
2021/07/06 04:33:09;;;;;;;0.90;0.60;;;18.50;99.90;;;;;;4939786;29;20182;-76
2021/07/06 04:35:35;;;;;;;0.70;0.50;;;18.50;99.90;;;;;;4942683;28;20196;-76
2021/07/06 04:38:00;;;;;;;0.80;0.80;;;18.50;99.90;;;;;;4951712;29;20524;-76
2021/07/06 04:40:26;;;;;;;0.70;0.50;;;18.50;99.90;;;;;;4945340;28;20191;-76
2021/07/06 04:42:55;;;;;;;0.70;0.60;;;18.50;99.90;;;;;;4949976;28;20206;-76
2021/07/06 04:45:21;;;;;;;0.70;0.50;;;18.50;99.90;;;;;;4931171;29;20175;-76
2021/07/06 04:47:47;;;;;;;2.13;1.80;;;18.50;99.90;;;;;;4948459;29;20414;-76
2021/07/06 04:50:14;;;;;;;2.10;2.00;;;18.60;99.90;;;;;;4958224;28;20448;-77
2021/07/06 04:52:44;;;;;;;0.70;0.70;;;18.50;99.90;;;;;;4936251;29;20653;-76
2021/07/06 04:55:10;;;;;;;0.70;0.57;;;18.60;99.90;;;;;;4955010;28;20425;-76
2021/07/06 04:57:36;;;;;;;1.00;0.90;;;18.50;99.90;;;;;;4943747;28;20422;-77
2021/07/06 05:00:03;;;;;;;0.80;0.67;;;18.60;99.90;;;;;;4938712;29;20582;-77
2021/07/06 05:02:29;;;;;;;0.70;0.60;;;18.60;99.90;;;;;;4938991;29;20195;-76
2021/07/06 05:04:55;;;;;;;1.27;1.17;;;18.70;99.90;;;;;;4949597;29;20419;-78
2021/07/06 05:07:21;;;;;;;0.70;0.50;;;18.50;99.90;;;;;;4947776;29;20426;-77
2021/07/06 05:09:47;;;;;;;0.73;0.53;;;18.60;99.90;;;;;;4948551;28;20193;-77
2021/07/06 05:12:12;;;;;;;0.70;0.60;;;18.50;99.90;;;;;;4941480;28;20920;-77
2021/07/06 05:14:38;;;;;;;0.70;0.60;;;18.60;99.90;;;;;;4955125;29;20631;-77
2021/07/06 05:17:04;;;;;;;0.70;0.50;;;18.60;99.90;;;;;;4939118;29;20195;-78
2021/07/06 05:19:29;;;;;;;0.80;0.70;;;18.60;99.90;;;;;;4932293;29;20202;-77
2021/07/06 05:21:55;;;;;;;0.70;0.50;;;18.70;99.90;;;;;;4949351;29;20241;-77
2021/07/06 05:24:20;;;;;;;1.07;1.00;;;18.70;99.90;;;;;;4950225;28;20692;-78
2021/07/06 05:26:46;;;;;;;0.70;0.50;;;18.70;99.90;;;;;;4946149;29;20253;-77
2021/07/06 05:29:11;;;;;;;0.70;0.60;;;18.70;99.90;;;;;;4939420;29;20239;-78
2021/07/06 05:31:37;;;;;;;0.70;0.50;;;18.70;99.90;;;;;;4934061;28;20181;-78
2021/07/06 05:34:03;;;;;;;0.70;0.60;;;18.70;99.90;;;;;;4944845;29;20242;-77
2021/07/06 05:36:28;;;;;;;0.70;0.60;;;18.80;99.90;;;;;;4920533;29;20207;-78
2021/07/06 05:38:54;;;;;;;1.10;0.90;;;18.80;99.90;;;;;;4934437;29;20190;-78
2021/07/06 05:41:20;;;;;;;0.70;0.50;;;18.70;99.90;;;;;;4950756;29;20265;-77
2021/07/06 05:43:45;;;;;;;0.90;0.70;;;18.80;99.90;;;;;;4940178;29;20233;-78
2021/07/06 05:46:11;;;;;;;0.70;0.50;;;18.80;99.90;;;;;;4948029;29;20194;-78
2021/07/06 05:48:37;;;;;;;0.70;0.50;;;18.80;99.90;;;;;;4949009;29;20167;-78
2021/07/06 05:51:03;;;;;;;0.70;0.60;;;18.80;99.90;;;;;;4960754;28;21126;-78
2021/07/06 05:53:29;;;;;;;0.70;0.50;;;18.80;99.90;;;;;;4946045;29;20178;-78
2021/07/06 05:55:54;;;;;;;0.70;0.60;;;18.80;99.90;;;;;;4953455;29;20640;-78
2021/07/06 05:58:20;;;;;;;2.67;2.50;;;18.80;99.90;;;;;;4957586;28;20183;-77
2021/07/06 06:00:45;;;;;;;0.70;0.50;;;18.80;99.90;;;;;;4938264;29;20258;-78
2021/07/06 06:03:11;;;;;;;0.70;0.50;;;18.80;99.90;;;;;;4933254;29;20660;-78
2021/07/06 06:05:41;;;;;;;0.70;0.60;;;18.90;99.90;;;;;;4943028;29;20184;-77
2021/07/06 06:08:07;;;;;;;2.30;1.17;;;18.90;99.90;;;;;;4948152;29;20430;-77
2021/07/06 06:10:33;;;;;;;0.90;0.70;;;18.90;99.90;;;;;;4937157;28;20461;-77
2021/07/06 06:12:58;;;;;;;0.70;0.50;;;19.00;99.90;;;;;;4943038;29;20422;-77
2021/07/06 06:15:24;;;;;;;0.80;0.70;;;19.00;99.90;;;;;;4949068;28;20186;-77
2021/07/06 06:17:49;;;;;;;0.70;0.60;;;19.10;99.90;;;;;;4944840;29;20265;-77
2021/07/06 06:20:16;;;;;;;3.03;1.17;;;19.10;99.90;;;;;;4931859;28;20565;-77
2021/07/06 06:22:41;;;;;;;0.70;0.50;;;19.10;99.90;;;;;;4954847;29;20209;-78
2021/07/06 06:25:07;;;;;;;0.70;0.60;;;19.10;99.90;;;;;;4947712;28;20422;-77
2021/07/06 06:27:33;;;;;;;1.33;1.23;;;19.10;99.90;;;;;;4949209;29;20178;-77
2021/07/06 06:29:58;;;;;;;1.00;0.90;;;19.10;99.90;;;;;;4945238;28;20445;-77
2021/07/06 06:32:24;;;;;;;0.70;0.50;;;19.20;99.90;;;;;;4957117;29;20703;-78
2021/07/06 06:34:51;;;;;;;0.70;0.50;;;19.30;99.90;;;;;;4935353;28;20768;-79
2021/07/06 06:37:17;;;;;;;0.70;0.60;;;19.20;99.90;;;;;;4958676;29;20206;-78
2021/07/06 06:39:42;;;;;;;3.23;0.90;;;19.20;99.90;;;;;;4937708;29;20528;-77
2021/07/06 06:42:08;;;;;;;0.83;0.70;;;19.00;99.90;;;;;;4950847;29;20547;-77
2021/07/06 06:44:35;;;;;;;1.10;1.00;;;19.00;99.90;;;;;;4953466;28;20166;-78
2021/07/06 06:47:00;;;;;;;0.80;0.80;;;19.10;99.90;;;;;;4939283;28;20727;-77
2021/07/06 06:49:26;;;;;;;0.93;0.83;;;19.00;99.90;;;;;;4945103;28;20522;-79
2021/07/06 06:51:52;;;;;;;0.70;0.60;;;18.90;99.90;;;;;;4936572;29;20183;-78
2021/07/06 06:54:18;;;;;;;0.70;0.50;;;18.90;99.90;;;;;;4943503;29;20246;-78
2021/07/06 06:56:44;;;;;;;0.70;0.50;;;18.80;99.90;;;;;;4947969;29;20287;-78
2021/07/06 06:59:10;;;;;;;0.90;0.70;;;18.80;99.90;;;;;;4944303;28;20423;-78
2021/07/06 07:01:37;;;;;;;0.70;0.50;;;18.70;99.90;;;;;;4937754;29;20422;-78
2021/07/06 07:04:04;;;;;;;1.03;1.03;;;18.70;99.90;;;;;;4941971;29;20462;-78
2021/07/06 07:06:29;;;;;;;0.80;0.73;;;18.70;99.90;;;;;;4947661;28;20427;-77
2021/07/06 07:08:55;;;;;;;1.70;0.60;;;18.60;99.90;;;;;;4942068;29;20421;-77
2021/07/06 07:11:20;;;;;;;1.00;0.73;;;18.60;99.90;;;;;;4952905;28;20607;-78
2021/07/06 07:13:48;;;;;;;0.80;0.60;;;18.50;99.90;;;;;;4948405;28;20178;-78
2021/07/06 07:16:14;;;;;;;1.10;0.77;;;18.50;99.90;;;;;;4943615;29;20208;-78
2021/07/06 07:18:39;;;;;;;0.70;0.70;;;18.50;99.90;;;;;;4945377;28;21130;-77
2021/07/06 07:21:05;;;;;;;0.70;0.60;;;18.50;99.90;;;;;;4951139;28;20832;-78
2021/07/06 07:23:30;;;;;;;0.80;0.60;;;18.60;99.90;;;;;;4935606;29;20202;-77
2021/07/06 07:25:56;;;;;;;1.37;1.27;;;18.60;99.90;;;;;;4932721;29;20186;-77
2021/07/06 07:28:21;;;;;;;0.70;0.50;;;18.60;99.90;;;;;;4934697;29;20177;-77
2021/07/06 07:30:47;;;;;;;0.70;0.53;;;18.60;99.90;;;;;;4933180;29;20205;-78
2021/07/06 07:33:13;;;;;;;0.70;0.50;;;18.60;99.90;;;;;;4931912;29;20230;-77
2021/07/06 07:35:38;;;;;;;0.80;0.77;;;18.60;99.90;;;;;;4934790;28;20182;-78
2021/07/06 07:38:04;;;;;;;0.83;0.60;;;18.60;99.90;;;;;;4933882;28;20198;-78
2021/07/06 07:40:29;;;;;;;0.70;0.50;;;18.70;99.90;;;;;;4927622;29;20242;-79
2021/07/06 07:42:55;;;;;;;1.07;0.80;;;18.70;99.90;;;;;;4932494;29;20203;-78
2021/07/06 07:45:20;;;;;;;0.70;0.50;;;18.70;99.90;;;;;;4925364;29;20184;-78
2021/07/06 07:47:46;;;;;;;0.70;0.70;;;18.70;99.90;;;;;;4933891;29;20661;-78
2021/07/06 07:50:13;;;;;;;0.80;0.73;;;18.70;99.90;;;;;;4928856;29;20210;-77
2021/07/06 07:52:39;;;;;;;0.70;0.60;;;18.80;99.90;;;;;;4935255;29;20936;-76
2021/07/06 07:55:07;;;;;;;0.70;0.50;;;18.80;99.90;;;;;;4937178;29;20437;-78
2021/07/06 07:57:32;;;;;;;0.70;0.60;;;18.90;99.90;;;;;;4952671;28;20446;-78
2021/07/06 07:59:58;;;;;;;0.70;0.60;;;18.90;99.90;;;;;;4933362;29;20443;-77
2021/07/06 08:02:24;;;;;;;0.83;0.70;;;18.90;99.90;;;;;;4929843;29;20201;-77
2021/07/06 08:04:53;;;;;;;0.80;0.70;;;18.90;99.90;;;;;;4941134;29;20183;-77
2021/07/06 08:07:18;;;;;;;0.70;0.60;;;19.00;99.90;;;;;;4954451;28;20189;-77
2021/07/06 08:09:44;;;;;;;1.10;1.00;;;19.00;99.90;;;;;;4930533;29;20882;-78
2021/07/06 08:12:10;;;;;;;0.70;0.50;;;19.10;99.90;;;;;;4939414;29;20652;-76
2021/07/06 08:14:36;;;;;;;0.80;0.70;;;19.20;99.90;;;;;;4946478;28;20217;-77
2021/07/06 08:17:02;;;;;;;0.70;0.50;;;19.30;99.90;;;;;;4937586;29;20433;-77
2021/07/06 08:19:28;;;;;;;0.80;0.70;;;19.30;99.90;;;;;;4945726;28;20579;-77
2021/07/06 08:21:54;;;;;;;1.10;1.00;;;19.40;99.90;;;;;;4948823;29;20459;-78
2021/07/06 08:24:20;;;;;;;0.70;0.50;;;19.60;99.90;;;;;;4939680;29;20875;-77
2021/07/06 08:26:46;;;;;;;0.70;0.60;;;19.60;99.90;;;;;;4935791;28;20478;-77
2021/07/06 08:29:11;;;;;;;1.57;0.90;;;19.70;99.90;;;;;;4937031;29;20190;-77
2021/07/06 08:31:37;;;;;;;1.03;0.93;;;19.70;99.90;;;;;;4932539;29;20426;-78
2021/07/06 08:34:03;;;;;;;0.90;0.77;;;19.70;99.90;;;;;;4929342;29;20186;-77
2021/07/06 08:36:29;;;;;;;0.70;0.60;;;19.80;99.90;;;;;;4932336;29;20179;-77
2021/07/06 08:38:55;;;;;;;0.70;0.60;;;19.80;99.90;;;;;;4939655;29;20804;-77
2021/07/06 08:41:22;;;;;;;0.70;0.50;;;19.90;99.90;;;;;;4932706;29;20214;-77
2021/07/06 08:43:47;;;;;;;0.90;0.60;;;19.80;99.90;;;;;;4939190;29;20233;-77
2021/07/06 08:46:20;;;;;;;0.70;0.60;;;19.90;99.90;;;;;;4937245;29;20431;-78
2021/07/06 08:48:48;;;;;;;1.00;0.83;;;20.00;99.90;;;;;;4950849;28;20175;-78
2021/07/06 08:51:19;;;;;;;1.10;1.00;;;19.90;99.90;;;;;;4924748;29;20806;-77
2021/07/06 08:53:46;;;;;;;1.03;0.70;;;20.00;99.90;;;;;;4937646;29;20434;-78
2021/07/06 08:56:12;;;;;;;0.70;0.60;;;20.00;99.90;;;;;;4929899;29;20503;-77
2021/07/06 08:58:38;;;;;;;1.17;1.13;;;20.00;99.90;;;;;;4932597;29;20438;-77
2021/07/06 09:01:03;;;;;;;1.37;1.27;;;20.00;99.90;;;;;;4933722;28;20448;-77
2021/07/06 09:03:52;;;;;;;0.70;0.50;;;20.00;99.90;;;;;;4944632;29;20210;-77
2021/07/06 09:06:17;;;;;;;0.80;0.60;;;20.10;99.90;;;;;;4934950;29;20175;-77
2021/07/06 09:08:43;;;;;;;0.83;0.73;;;20.20;99.90;;;;;;4926684;29;20494;-77
2021/07/06 09:11:15;;;;;;;0.70;0.60;;;20.30;99.90;;;;;;4930381;29;20192;-77
2021/07/06 09:13:40;;;;;;;0.70;0.60;;;20.40;99.90;;;;;;4923750;29;20238;-77
2021/07/06 09:16:06;;;;;;;0.70;0.60;;;20.50;99.90;;;;;;4933231;29;20432;-77
2021/07/06 09:18:33;;;;;;;0.70;0.50;;;20.50;99.90;;;;;;4936761;29;20723;-78
2021/07/06 09:21:08;;;;;;;0.70;0.50;;;20.60;99.90;;;;;;4937475;29;20554;-77
2021/07/06 09:23:37;;;;;;;0.70;0.60;;;20.60;99.90;;;;;;4939297;29;20561;-78
2021/07/06 09:26:03;;;;;;;0.80;0.60;;;20.60;99.90;;;;;;4951918;28;20429;-77
2021/07/06 09:28:33;;;;;;;1.10;0.93;;;20.70;99.90;;;;;;4941375;29;20419;-77
2021/07/06 09:31:13;;;;;;;1.37;1.00;;;20.70;99.90;;;;;;4937925;29;20665;-76
2021/07/06 09:33:57;;;;;;;1.17;1.00;;;20.70;99.90;;;;;;4939183;29;20924;-76
2021/07/06 09:36:38;;;;;;;0.87;0.73;;;20.70;99.90;;;;;;4937613;29;20435;-76
2021/07/06 09:39:08;;;;;;;0.70;0.50;;;20.70;99.90;;;;;;4939354;29;20436;-77
2021/07/06 09:41:34;;;;;;;1.07;0.60;;;20.90;99.90;;;;;;4954699;28;20484;-77
2021/07/06 09:44:19;;;;;;;0.70;0.50;;;21.00;99.90;;;;;;4941672;29;20466;-77
2021/07/06 09:46:49;;;;;;;0.70;0.50;;;21.00;99.90;;;;;;4947409;29;20426;-78
2021/07/06 09:49:20;;;;;;;0.70;0.60;;;21.10;99.90;;;;;;4951669;29;20525;-77
2021/07/06 09:51:47;;;;;;;0.70;0.60;;;21.10;99.90;;;;;;4936831;29;20519;-76
2021/07/06 09:54:34;;;;;;;1.10;1.10;;;21.10;99.90;;;;;;4936985;29;20419;-77
2021/07/06 09:57:05;;;;;;;0.70;0.50;;;21.20;99.90;;;;;;4947028;29;20420;-77
2021/07/06 09:59:30;;;;;;;0.80;0.70;;;21.30;99.90;;;;;;4948117;29;20439;-76
2021/07/06 10:01:59;;;;;;;1.30;0.73;;;21.20;99.90;;;;;;4931177;29;20459;-76
2021/07/06 10:04:26;;;;;;;0.70;0.50;;;21.00;99.90;;;;;;4930192;29;20235;-77
2021/07/06 10:06:57;;;;;;;0.70;0.50;;;21.10;99.90;;;;;;4918948;29;21302;-76
2021/07/06 10:09:25;;;;;;;0.70;0.50;;;21.00;99.90;;;;;;4932690;29;20811;-78
2021/07/06 10:11:52;;;;;;;0.80;0.60;;;21.00;99.90;;;;;;4924367;29;20518;-76
2021/07/06 10:14:19;;;;;;;0.70;0.60;;;21.00;99.90;;;;;;4935672;29;20427;-77
2021/07/06 10:16:45;;;;;;;0.70;0.50;;;21.00;99.90;;;;;;4922970;29;20435;-76
2021/07/06 10:19:11;;;;;;;0.70;0.50;;;21.10;99.90;;;;;;4929495;29;20435;-76
2021/07/06 10:21:37;;;;;;;0.70;0.50;;;21.50;99.90;;;;;;4933380;29;20439;-76
2021/07/06 10:24:04;;;;;;;1.03;0.83;;;21.90;99.90;;;;;;4934347;29;20462;-77
2021/07/06 10:26:32;;;;;;;0.70;0.60;;;22.40;99.90;;;;;;4930415;29;20186;-77
2021/07/06 10:28:58;;;;;;;0.70;0.50;;;22.90;99.90;;;;;;4936014;29;20419;-77
2021/07/06 10:31:24;;;;;;;0.70;0.50;;;23.40;99.90;;;;;;4926572;29;20451;-77
2021/07/06 10:33:51;;;;;;;0.80;0.50;;;23.80;99.90;;;;;;4928700;29;20633;-77
2021/07/06 10:36:17;;;;;;;0.80;0.50;;;24.20;99.90;;;;;;4931722;29;20455;-77
2021/07/06 10:38:45;;;;;;;0.80;0.60;;;24.60;99.90;;;;;;4933023;29;20445;-77
2021/07/06 10:41:20;;;;;;;0.80;0.50;;;24.80;99.90;;;;;;4933903;28;20505;-77
2021/07/06 10:43:46;;;;;;;0.80;0.50;;;24.80;99.90;;;;;;4932294;29;20484;-77
2021/07/06 10:46:20;;;;;;;0.80;0.60;;;25.10;99.90;;;;;;4949031;28;20482;-78
2021/07/06 10:48:50;;;;;;;0.80;0.60;;;25.20;99.90;;;;;;4948675;28;20313;-78
2021/07/06 10:51:37;;;;;;;0.80;0.50;;;25.50;99.90;;;;;;4922796;29;20459;-78
2021/07/06 10:54:06;;;;;;;0.80;0.53;;;25.70;99.90;;;;;;4928737;29;20919;-77
2021/07/06 10:56:33;;;;;;;0.80;0.50;;;25.80;99.90;;;;;;4931534;29;20419;-79
2021/07/06 10:59:02;;;;;;;0.80;0.50;;;26.00;99.90;;;;;;4927430;29;20937;-79
2021/07/06 11:01:37;;;;;;;0.80;0.63;;;25.90;99.90;;;;;;4954845;28;20422;-78
2021/07/06 11:04:07;;;;;;;0.80;0.60;;;25.80;99.90;;;;;;4930437;29;20462;-78
2021/07/06 11:06:45;;;;;;;0.80;0.60;;;25.60;99.90;;;;;;4930138;29;20412;-78
2021/07/06 11:09:33;;;;;;;0.80;0.77;;;25.40;99.90;;;;;;4935198;29;20410;-76
2021/07/06 11:12:22;;;;;;;0.80;0.60;;;25.80;99.90;;;;;;4922336;29;20932;-76
2021/07/06 11:14:59;;;;;;;1.00;0.60;;;26.20;99.90;;;;;;4933513;29;20450;-75
2021/07/06 11:17:32;;;;;;;0.80;0.60;;;26.50;99.90;;;;;;4933782;29;20430;-76
2021/07/06 11:20:01;;;;;;;0.80;0.70;;;26.70;99.90;;;;;;4934432;29;20441;-77
2021/07/06 11:23:03;;;;;;;0.80;0.60;;;26.70;99.90;;;;;;4924801;29;20454;-75
2021/07/06 11:25:35;;;;;;;0.80;0.60;;;26.80;99.90;;;;;;4912819;29;20450;-75
2021/07/06 11:28:04;;;;;;;0.80;0.50;;;27.10;99.90;;;;;;4925771;29;20427;-77
2021/07/06 11:30:30;;;;;;;0.80;0.60;;;27.20;98.90;;;;;;4932613;29;20454;-77
2021/07/06 11:33:08;;;;;;;0.80;0.60;;;27.00;92.70;;;;;;4924021;29;20419;-77
2021/07/06 11:35:38;;;;;;;1.43;0.90;;;27.10;97.90;;;;;;4920792;29;20790;-77
2021/07/06 11:38:08;;;;;;;0.80;0.60;;;26.80;94.60;;;;;;4942137;28;20513;-77
2021/07/06 11:40:35;;;;;;;0.80;0.60;;;26.90;92.40;;;;;;4933041;29;20445;-76
2021/07/06 11:43:02;;;;;;;1.60;1.10;;;26.80;84.30;;;;;;4948476;29;20458;-77
2021/07/06 11:45:27;;;;;;;0.80;0.60;;;26.80;98.20;;;;;;4944072;28;20911;-76
2021/07/06 11:48:24;;;;;;;0.97;0.60;;;27.00;89.80;;;;;;4953217;28;20422;-76
2021/07/06 11:50:50;;;;;;;0.80;0.50;;;27.00;87.70;;;;;;4920492;29;20205;-77
2021/07/06 11:53:23;;;;;;;0.90;0.70;;;27.20;85.00;;;;;;4939343;29;20830;-76
2021/07/06 11:55:49;;;;;;;0.80;0.50;;;27.50;84.80;;;;;;4939232;29;20414;-77
2021/07/06 11:58:21;;;;;;;0.80;0.50;;;27.70;80.10;;;;;;4946976;28;20427;-78
2021/07/06 12:00:47;;;;;;;0.80;0.60;;;27.50;80.50;;;;;;4939333;29;20878;-76
2021/07/06 12:03:27;;;;;;;2.70;1.03;;;27.40;81.60;;;;;;4936242;28;20519;-76
2021/07/06 12:05:57;;;;;;;0.80;0.60;;;27.10;84.70;;;;;;4934685;29;20179;-76
2021/07/06 12:08:25;;;;;;;0.90;0.60;;;27.20;88.50;;;;;;4937389;29;20422;-78
2021/07/06 12:11:05;;;;;;;0.80;0.57;;;27.30;81.40;;;;;;4943905;29;20441;-77
2021/07/06 12:13:51;;;;;;;0.90;0.70;;;27.20;80.30;;;;;;4943682;28;20438;-77
2021/07/06 12:16:28;;;;;;;1.33;0.70;;;27.10;76.50;;;;;;4951694;29;20421;-77
2021/07/06 12:18:58;;;;;;;0.90;0.70;;;27.10;79.10;;;;;;4940713;29;20418;-76
2021/07/06 12:21:53;;;;;;;0.80;0.60;;;27.10;73.20;;;;;;4940248;28;20594;-77
2021/07/06 12:24:23;;;;;;;0.80;0.60;;;26.90;71.20;;;;;;4932943;29;20506;-77
2021/07/06 12:26:51;;;;;;;0.80;0.60;;;27.10;70.80;;;;;;4928334;29;20920;-76
2021/07/06 12:29:34;;;;;;;0.80;0.50;;;27.00;67.10;;;;;;4936696;29;20434;-77
2021/07/06 12:32:00;;;;;;;0.80;0.60;;;27.10;70.30;;;;;;4935565;29;20940;-74
2021/07/06 12:34:39;;;;;;;0.87;0.70;;;27.10;67.80;;;;;;4938485;29;20479;-75
2021/07/06 12:37:08;;;;;;;0.80;0.50;;;27.10;67.10;;;;;;4940331;28;20474;-77
2021/07/06 12:39:38;;;;;;;0.80;0.50;;;26.80;68.90;;;;;;4929239;29;20838;-77
2021/07/06 12:42:11;;;;;;;0.80;0.60;;;26.80;70.90;;;;;;4933732;29;20439;-77
2021/07/06 12:44:44;;;;;;;0.80;0.60;;;26.80;71.90;;;;;;4931594;29;20486;-76
2021/07/06 12:47:25;;;;;;;0.80;0.60;;;26.80;72.80;;;;;;4926312;29;20431;-76
2021/07/06 12:50:20;;;;;;;0.80;0.60;;;26.60;68.40;;;;;;4939271;28;20457;-77
2021/07/06 12:52:48;;;;;;;0.80;0.60;;;26.50;73.40;;;;;;4934226;29;20423;-77
2021/07/06 12:55:16;;;;;;;0.90;0.60;;;26.60;76.00;;;;;;4932093;29;20792;-77
2021/07/06 12:57:44;;;;;;;0.80;0.50;;;26.60;81.60;;;;;;4932553;29;20430;-76
2021/07/06 13:00:22;;;;;;;0.80;0.60;;;26.60;79.50;;;;;;4927204;29;21016;-77